createdAt,value
2018-03-31T00:00:19.888Z,9.83
2018-03-31T00:02:48.300Z,9.03
2018-03-31T00:05:17.478Z,9.03
2018-03-31T00:07:46.689Z,9.60
2018-03-31T00:10:15.847Z,9.30
2018-03-31T00:12:44.294Z,9.03
2018-03-31T00:15:13.449Z,9.43
2018-03-31T00:17:42.636Z,9.83
2018-03-31T00:20:12.577Z,10.77
2018-03-31T00:22:42.164Z,9.30
2018-03-31T00:25:11.355Z,7.90
2018-03-31T00:27:40.508Z,9.80
2018-03-31T00:30:09.705Z,7.83
2018-03-31T00:32:38.149Z,8.87
2018-03-31T00:35:06.953Z,9.13
2018-03-31T00:37:35.398Z,11.57
2018-03-31T00:40:04.581Z,9.60
2018-03-31T00:42:33.799Z,10.77
2018-03-31T00:45:02.211Z,9.97
2018-03-31T00:47:31.389Z,9.73
2018-03-31T00:50:00.182Z,8.80
2018-03-31T00:52:29.381Z,11.50
2018-03-31T00:54:57.797Z,11.90
2018-03-31T00:57:26.588Z,12.67
2018-03-31T00:59:55.033Z,12.10
2018-03-31T01:02:23.833Z,10.87
2018-03-31T01:04:52.265Z,12.97
2018-03-31T01:07:21.079Z,11.90
2018-03-31T01:09:49.509Z,12.77
2018-03-31T01:12:18.321Z,10.73
2018-03-31T01:14:47.506Z,11.63
2018-03-31T01:17:15.959Z,11.00
2018-03-31T01:19:44.781Z,14.83
2018-03-31T01:22:13.964Z,10.70
2018-03-31T01:24:42.783Z,10.37
2018-03-31T01:27:11.999Z,11.30
2018-03-31T01:29:41.164Z,11.47
2018-03-31T01:32:10.336Z,10.43
2018-03-31T01:34:39.531Z,11.77
2018-03-31T01:37:07.948Z,11.23
2018-03-31T01:39:37.153Z,9.57
2018-03-31T01:42:05.557Z,15.50
2018-03-31T01:44:33.987Z,11.40
2018-03-31T01:47:03.549Z,12.07
2018-03-31T01:49:31.979Z,12.37
2018-03-31T01:52:01.173Z,12.40
2018-03-31T01:54:29.593Z,12.20
2018-03-31T01:56:58.382Z,13.67
2018-03-31T01:59:26.824Z,11.37
2018-03-31T02:01:55.227Z,13.07
2018-03-31T02:04:23.648Z,13.10
2018-03-31T02:06:52.537Z,11.20
2018-03-31T02:09:20.976Z,13.13
2018-03-31T02:11:49.375Z,12.33
2018-03-31T02:14:17.795Z,11.90
2018-03-31T02:16:46.231Z,12.90
2018-03-31T02:19:14.640Z,12.73
2018-03-31T02:21:43.044Z,12.87
2018-03-31T02:24:12.239Z,10.07
2018-03-31T02:26:41.442Z,12.50
2018-03-31T02:29:09.832Z,14.40
2018-03-31T02:31:38.264Z,11.33
2018-03-31T02:34:06.678Z,14.60
2018-03-31T02:36:35.879Z,11.17
2018-03-31T02:39:05.041Z,12.03
2018-03-31T02:41:33.469Z,10.87
2018-03-31T02:44:01.883Z,10.50
2018-03-31T02:46:30.302Z,10.50
2018-03-31T02:48:58.735Z,9.80
2018-03-31T02:51:27.127Z,11.27
2018-03-31T02:53:55.930Z,14.63
2018-03-31T02:56:24.345Z,13.40
2018-03-31T02:58:52.747Z,11.10
2018-03-31T03:01:21.179Z,13.10
2018-03-31T03:03:49.629Z,11.93
2018-03-31T03:06:18.049Z,12.80
2018-03-31T03:08:47.237Z,11.67
2018-03-31T03:11:15.669Z,11.93
2018-03-31T03:13:44.851Z,11.20
2018-03-31T03:16:14.036Z,11.80
2018-03-31T03:18:42.888Z,12.67
2018-03-31T03:21:12.068Z,12.60
2018-03-31T03:23:40.494Z,14.20
2018-03-31T03:26:09.693Z,13.20
2018-03-31T03:28:38.107Z,16.43
2018-03-31T03:31:06.512Z,13.43
2018-03-31T03:33:34.969Z,12.50
2018-03-31T03:36:04.154Z,12.27
2018-03-31T03:38:32.566Z,11.60
2018-03-31T03:41:01.000Z,17.67
2018-03-31T03:43:30.169Z,14.00
2018-03-31T03:45:59.363Z,15.10
2018-03-31T03:48:28.204Z,12.67
2018-03-31T03:50:56.621Z,15.67
2018-03-31T03:53:25.029Z,13.20
2018-03-31T03:55:53.471Z,14.97
2018-03-31T03:58:21.904Z,15.07
2018-03-31T04:00:51.459Z,15.80
2018-03-31T04:03:19.902Z,14.63
2018-03-31T04:05:48.308Z,18.23
2018-03-31T04:08:16.752Z,14.43
2018-03-31T04:10:45.929Z,13.77
2018-03-31T04:13:14.353Z,18.33
2018-03-31T04:15:43.562Z,12.03
2018-03-31T04:18:11.969Z,14.80
2018-03-31T04:20:41.141Z,16.83
2018-03-31T04:23:09.584Z,15.57
2018-03-31T04:25:38.507Z,14.73
2018-03-31T04:28:06.931Z,14.67
2018-03-31T04:30:37.225Z,15.77
2018-03-31T04:33:05.650Z,13.77
2018-03-31T04:35:34.468Z,14.97
2018-03-31T04:38:02.897Z,15.23
2018-03-31T04:40:31.703Z,14.90
2018-03-31T04:43:00.144Z,16.13
2018-03-31T04:45:29.348Z,14.97
2018-03-31T04:47:58.511Z,17.13
2018-03-31T04:50:26.916Z,16.23
2018-03-31T04:52:56.115Z,13.70
2018-03-31T04:55:25.301Z,15.43
2018-03-31T04:57:53.728Z,18.07
2018-03-31T05:00:22.136Z,17.33
2018-03-31T05:02:50.982Z,17.70
2018-03-31T05:05:19.409Z,17.07
2018-03-31T05:07:47.849Z,19.60
2018-03-31T05:10:16.266Z,15.93
2018-03-31T05:12:45.479Z,16.33
2018-03-31T05:15:13.891Z,17.73
2018-03-31T05:17:42.300Z,18.37
2018-03-31T05:20:11.618Z,19.63
2018-03-31T05:22:40.426Z,19.10
2018-03-31T05:25:08.853Z,16.53
2018-03-31T05:27:37.659Z,16.40
2018-03-31T05:30:06.469Z,16.87
2018-03-31T05:32:35.641Z,17.20
2018-03-31T05:35:04.072Z,17.33
2018-03-31T05:37:33.249Z,17.80
2018-03-31T05:40:02.163Z,17.77
2018-03-31T05:42:30.571Z,17.53
2018-03-31T05:44:58.999Z,16.70
2018-03-31T05:47:27.649Z,18.03
2018-03-31T05:49:56.849Z,19.30
2018-03-31T05:52:25.258Z,18.40
2018-03-31T05:54:53.675Z,19.23
2018-03-31T05:57:22.107Z,17.27
2018-03-31T05:59:51.309Z,18.30
2018-03-31T06:02:19.721Z,17.20
2018-03-31T06:04:48.901Z,17.57
2018-03-31T06:07:17.333Z,16.63
2018-03-31T06:09:45.774Z,20.03
2018-03-31T06:12:14.207Z,20.30
2018-03-31T06:14:42.620Z,15.73
2018-03-31T06:17:11.030Z,20.30
2018-03-31T06:19:39.862Z,16.70
2018-03-31T06:22:08.280Z,18.40
2018-03-31T06:24:37.441Z,17.30
2018-03-31T06:27:06.150Z,19.30
2018-03-31T06:29:34.590Z,17.13
2018-03-31T06:32:03.959Z,17.40
2018-03-31T06:34:32.704Z,19.70
2018-03-31T06:37:01.429Z,16.97
2018-03-31T06:39:31.076Z,17.07
2018-03-31T06:42:00.517Z,19.00
2018-03-31T06:44:28.982Z,19.37
2018-03-31T06:46:57.426Z,20.70
2018-03-31T06:49:25.862Z,18.47
2018-03-31T06:51:55.852Z,18.20
2018-03-31T06:54:25.047Z,20.23
2018-03-31T06:56:55.466Z,21.10
2018-03-31T06:59:23.984Z,19.23
2018-03-31T07:01:52.797Z,20.23
2018-03-31T07:04:21.638Z,19.40
2018-03-31T07:06:50.503Z,18.10
2018-03-31T07:09:18.954Z,18.43
2018-03-31T07:11:47.839Z,17.97
2018-03-31T07:14:16.570Z,19.47
2018-03-31T07:16:45.747Z,21.40
2018-03-31T07:19:15.997Z,19.17
2018-03-31T07:21:44.400Z,17.37
2018-03-31T07:27:10.659Z,16.83
2018-03-31T07:29:39.841Z,18.30
2018-03-31T07:32:09.779Z,17.23
2018-03-31T07:34:39.398Z,20.00
2018-03-31T07:37:07.842Z,17.80
2018-03-31T07:39:38.992Z,17.83
2018-03-31T07:42:07.829Z,19.33
2018-03-31T07:44:36.464Z,18.33
2018-03-31T07:47:04.932Z,17.73
2018-03-31T07:49:34.128Z,23.00
2018-03-31T07:52:04.458Z,20.80
2018-03-31T07:54:32.850Z,17.43
2018-03-31T07:57:02.142Z,20.47
2018-03-31T07:59:32.064Z,17.17
2018-03-31T08:02:01.285Z,20.10
2018-03-31T08:04:29.702Z,19.30
2018-03-31T08:06:58.724Z,23.93
2018-03-31T08:09:28.368Z,16.93
2018-03-31T08:11:58.089Z,17.33
2018-03-31T08:14:27.297Z,22.43
2018-03-31T08:16:55.719Z,17.63
2018-03-31T08:19:24.915Z,16.53
2018-03-31T08:21:54.136Z,19.37
2018-03-31T08:24:23.638Z,16.80
2018-03-31T08:26:52.885Z,19.33
2018-03-31T08:29:21.949Z,17.87
2018-03-31T08:31:51.289Z,19.67
2018-03-31T08:34:21.130Z,20.47
2018-03-31T08:36:50.576Z,22.53
2018-03-31T08:39:19.689Z,20.13
2018-03-31T08:41:48.420Z,17.33
2018-03-31T08:44:17.720Z,18.83
2018-03-31T08:46:46.877Z,16.30
2018-03-31T08:49:17.080Z,14.60
2018-03-31T08:51:47.963Z,17.57
2018-03-31T08:54:18.080Z,21.07
2018-03-31T08:56:47.399Z,17.80
2018-03-31T08:59:16.570Z,18.40
2018-03-31T09:01:45.033Z,18.83
2018-03-31T09:04:14.177Z,17.50
2018-03-31T09:06:43.920Z,16.17
2018-03-31T09:09:12.398Z,16.90
2018-03-31T09:11:40.781Z,16.03
2018-03-31T09:14:10.019Z,16.50
2018-03-31T09:16:39.243Z,20.40
2018-03-31T09:19:08.926Z,19.20
2018-03-31T09:21:38.531Z,18.23
2018-03-31T09:24:07.779Z,23.37
2018-03-31T09:26:36.992Z,20.07
2018-03-31T09:29:06.197Z,19.80
2018-03-31T09:31:35.538Z,16.20
2018-03-31T09:34:04.762Z,17.57
2018-03-31T09:36:33.970Z,24.00
2018-03-31T09:39:02.448Z,20.27
2018-03-31T09:41:30.881Z,14.30
2018-03-31T09:44:00.438Z,18.37
2018-03-31T09:46:29.277Z,15.33
2018-03-31T09:48:59.102Z,14.50
2018-03-31T09:51:28.572Z,15.17
2018-03-31T09:53:57.787Z,13.87
2018-03-31T09:56:26.852Z,15.43
2018-03-31T09:58:55.293Z,14.43
2018-03-31T10:01:25.580Z,13.90
2018-03-31T10:03:54.412Z,13.53
2018-03-31T10:06:23.239Z,15.30
2018-03-31T10:08:52.482Z,16.80
2018-03-31T10:11:20.918Z,16.50
2018-03-31T10:13:50.108Z,16.20
2018-03-31T10:16:19.299Z,14.20
2018-03-31T10:18:48.001Z,16.40
2018-03-31T10:21:17.255Z,14.70
2018-03-31T10:23:46.005Z,18.20
2018-03-31T10:26:14.420Z,14.50
2018-03-31T10:32:17.197Z,15.60
2018-03-31T10:34:48.038Z,15.23
2018-03-31T10:37:18.298Z,22.30
2018-03-31T10:39:47.187Z,19.60
2018-03-31T10:42:16.404Z,24.87
2018-03-31T10:44:45.413Z,24.17
2018-03-31T10:47:15.156Z,20.90
2018-03-31T10:49:44.033Z,26.10
2018-03-31T10:52:12.594Z,25.80
2018-03-31T10:54:41.178Z,19.57
2018-03-31T10:57:10.079Z,17.23
2018-03-31T10:59:38.503Z,16.30
2018-03-31T11:02:06.970Z,22.27
2018-03-31T11:04:35.393Z,17.60
2018-03-31T11:07:04.223Z,16.43
2018-03-31T11:09:33.287Z,18.17
2018-03-31T11:12:02.510Z,22.05
2018-03-31T11:14:30.992Z,19.27
2018-03-31T11:17:01.056Z,20.17
2018-03-31T11:19:29.905Z,20.10
2018-03-31T11:22:00.064Z,19.93
2018-03-31T11:24:29.865Z,19.83
2018-03-31T11:26:58.971Z,21.23
2018-03-31T11:29:27.397Z,20.57
2018-03-31T11:31:57.355Z,20.60
2018-03-31T11:34:25.827Z,21.20
2018-03-31T11:36:54.909Z,19.63
2018-03-31T11:39:23.671Z,22.97
2018-03-31T11:41:53.047Z,21.27
2018-03-31T11:44:21.971Z,22.73
2018-03-31T11:46:51.172Z,23.50
2018-03-31T11:49:21.065Z,25.33
2018-03-31T11:51:50.563Z,25.20
2018-03-31T11:54:19.000Z,26.60
2018-03-31T11:56:48.217Z,27.30
2018-03-31T11:59:16.725Z,25.37
2018-03-31T12:01:45.916Z,24.13
2018-03-31T12:04:15.119Z,26.33
2018-03-31T12:06:44.035Z,25.67
2018-03-31T12:09:13.255Z,28.80
2018-03-31T12:11:42.120Z,25.40
2018-03-31T12:14:11.294Z,25.37
2018-03-31T12:16:40.134Z,26.03
2018-03-31T12:19:09.302Z,30.40
2018-03-31T12:21:38.253Z,30.77
2018-03-31T12:24:07.482Z,30.17
2018-03-31T12:26:36.644Z,29.27
2018-03-31T12:29:06.743Z,32.90
2018-03-31T12:31:36.729Z,32.93
2018-03-31T12:34:06.360Z,33.67
2018-03-31T12:36:35.656Z,32.00
2018-03-31T12:39:05.370Z,33.57
2018-03-31T12:41:33.819Z,28.73
2018-03-31T12:44:02.479Z,28.30
2018-03-31T12:46:31.749Z,28.57
2018-03-31T12:49:00.166Z,28.23
2018-03-31T12:51:28.588Z,22.63
2018-03-31T12:53:57.101Z,24.13
2018-03-31T12:56:25.576Z,24.40
2018-03-31T12:58:54.404Z,28.10
2018-03-31T13:01:22.871Z,23.93
2018-03-31T13:03:52.065Z,23.37
2018-03-31T13:06:21.557Z,24.47
2018-03-31T13:08:49.988Z,21.23
2018-03-31T13:11:18.416Z,21.83
2018-03-31T13:13:47.302Z,21.70
2018-03-31T13:16:15.859Z,20.33
2018-03-31T13:18:44.293Z,19.67
2018-03-31T13:21:14.094Z,21.50
2018-03-31T13:23:42.578Z,19.67
2018-03-31T13:26:12.211Z,19.17
2018-03-31T13:28:42.477Z,19.30
2018-03-31T13:31:10.959Z,20.83
2018-03-31T13:33:39.423Z,17.70
2018-03-31T13:36:08.684Z,17.40
2018-03-31T13:38:37.785Z,16.53
2018-03-31T13:41:06.258Z,18.03
2018-03-31T13:43:35.946Z,18.23
2018-03-31T13:46:05.157Z,19.43
2018-03-31T13:48:34.794Z,20.97
2018-03-31T13:51:03.244Z,17.83
2018-03-31T13:53:32.091Z,18.23
2018-03-31T13:56:00.540Z,20.30
2018-03-31T13:58:29.273Z,17.37
2018-03-31T14:00:59.372Z,16.90
2018-03-31T14:03:28.612Z,20.10
2018-03-31T14:05:58.092Z,21.60
2018-03-31T14:08:27.271Z,17.33
2018-03-31T14:10:55.723Z,17.07
2018-03-31T14:13:24.904Z,15.93
2018-03-31T14:15:54.117Z,17.03
2018-03-31T14:18:22.537Z,16.50
2018-03-31T14:20:51.792Z,15.87
2018-03-31T14:23:20.640Z,16.73
2018-03-31T14:25:49.952Z,16.07
2018-03-31T14:28:19.848Z,16.37
2018-03-31T14:30:48.846Z,17.23
2018-03-31T14:33:19.040Z,16.33
2018-03-31T14:35:48.293Z,16.63
2018-03-31T14:38:17.313Z,16.73
2018-03-31T14:40:45.743Z,18.63
2018-03-31T14:43:15.816Z,18.20
2018-03-31T14:45:45.074Z,17.23
2018-03-31T14:48:13.925Z,17.93
2018-03-31T14:50:43.364Z,18.93
2018-03-31T14:53:12.248Z,20.07
2018-03-31T14:55:40.717Z,18.43
2018-03-31T14:58:09.962Z,20.20
2018-03-31T15:00:38.380Z,20.70
2018-03-31T15:03:07.281Z,19.80
2018-03-31T15:05:35.720Z,22.40
2018-03-31T15:08:05.993Z,23.50
2018-03-31T15:10:35.430Z,20.97
2018-03-31T15:13:03.833Z,19.63
2018-03-31T15:15:32.250Z,20.40
2018-03-31T15:18:01.129Z,25.27
2018-03-31T15:20:30.335Z,19.67
2018-03-31T15:22:58.934Z,22.00
2018-03-31T15:25:27.963Z,22.00
2018-03-31T15:27:56.419Z,26.10
2018-03-31T15:30:24.856Z,25.30
2018-03-31T15:32:53.329Z,21.97
2018-03-31T15:35:22.219Z,24.07
2018-03-31T15:37:50.712Z,24.73
2018-03-31T15:40:19.936Z,24.00
2018-03-31T15:42:48.443Z,25.93
2018-03-31T15:45:18.313Z,25.33
2018-03-31T15:47:46.788Z,25.77
2018-03-31T15:50:15.231Z,27.60
2018-03-31T15:52:44.346Z,25.80
2018-03-31T15:55:14.639Z,24.70
2018-03-31T15:57:43.572Z,26.20
2018-03-31T16:00:12.397Z,26.30
2018-03-31T16:02:41.657Z,23.83
2018-03-31T16:05:10.643Z,28.03
2018-03-31T16:07:40.825Z,23.77
2018-03-31T16:10:09.642Z,26.60
2018-03-31T16:12:39.703Z,22.97
2018-03-31T16:15:08.145Z,28.10
2018-03-31T16:17:37.229Z,23.17
2018-03-31T16:20:06.091Z,28.50
2018-03-31T16:22:34.568Z,27.90
2018-03-31T16:25:03.100Z,27.77
2018-03-31T16:27:32.376Z,30.70
2018-03-31T16:30:01.609Z,30.30
2018-03-31T16:32:30.888Z,25.97
2018-03-31T16:34:59.927Z,23.07
2018-03-31T16:37:28.787Z,19.67
2018-03-31T16:39:58.326Z,23.20
2018-03-31T16:42:28.378Z,18.83
2018-03-31T16:44:57.230Z,20.10
2018-03-31T16:47:26.079Z,19.60
2018-03-31T16:49:55.389Z,20.63
2018-03-31T16:52:25.764Z,21.17
2018-03-31T16:54:54.223Z,19.23
2018-03-31T16:57:22.715Z,24.80
2018-03-31T16:59:51.541Z,22.50
2018-03-31T17:02:20.837Z,19.30
2018-03-31T17:04:49.304Z,19.10
2018-03-31T17:07:17.728Z,18.70
2018-03-31T17:09:46.183Z,17.37
2018-03-31T17:12:14.612Z,19.77
2018-03-31T17:14:43.080Z,21.90
2018-03-31T17:17:11.890Z,22.17
2018-03-31T17:19:40.323Z,23.53
2018-03-31T17:22:09.917Z,24.47
2018-03-31T17:24:39.106Z,25.70
2018-03-31T17:27:07.949Z,25.37
2018-03-31T17:29:36.392Z,27.30
2018-03-31T17:32:04.805Z,23.80
2018-03-31T17:34:33.231Z,24.10
2018-03-31T17:37:02.056Z,24.30
2018-03-31T17:39:30.478Z,24.80
2018-03-31T17:41:59.706Z,23.63
2018-03-31T17:44:28.115Z,29.20
2018-03-31T17:46:56.570Z,27.80
2018-03-31T17:49:24.985Z,27.67
2018-03-31T17:51:53.454Z,24.70
2018-03-31T17:54:21.881Z,26.10
2018-03-31T17:56:51.157Z,24.80
2018-03-31T17:59:21.607Z,26.20
2018-03-31T18:01:50.417Z,27.60
2018-03-31T18:04:18.862Z,29.20
2018-03-31T18:06:47.318Z,30.63
2018-03-31T18:09:16.120Z,29.17
2018-03-31T18:11:44.553Z,27.83
2018-03-31T18:14:13.098Z,27.93
2018-03-31T18:16:41.988Z,34.40
2018-03-31T18:19:11.206Z,35.20
2018-03-31T18:21:40.490Z,38.30
2018-03-31T18:24:08.886Z,27.50
2018-03-31T18:26:38.068Z,24.57
2018-03-31T18:29:06.536Z,29.83
2018-03-31T18:31:34.996Z,40.93
2018-03-31T18:34:03.498Z,32.90
2018-03-31T18:36:32.659Z,45.53
2018-03-31T18:39:01.155Z,57.30
2018-03-31T18:41:29.525Z,40.50
2018-03-31T18:43:59.478Z,33.00
2018-03-31T18:46:28.765Z,32.67
2018-03-31T18:48:57.656Z,35.93
2018-03-31T18:51:26.168Z,29.43
2018-03-31T18:53:54.580Z,28.83
2018-03-31T18:56:23.020Z,29.40
2018-03-31T18:58:51.945Z,70.50
2018-03-31T19:01:20.406Z,61.53
2018-03-31T19:03:49.610Z,49.47
2018-03-31T19:06:18.029Z,43.63
2018-03-31T19:08:47.956Z,40.93
2018-03-31T19:11:17.193Z,47.37
2018-03-31T19:13:45.610Z,57.60
2018-03-31T19:16:14.830Z,37.87
2018-03-31T19:18:43.665Z,65.30
2018-03-31T19:21:12.856Z,64.17
2018-03-31T19:23:41.304Z,80.50
2018-03-31T19:26:10.489Z,75.03
2018-03-31T19:28:39.339Z,76.10
2018-03-31T19:31:08.593Z,97.13
2018-03-31T19:33:37.020Z,138.90
2018-03-31T19:36:12.322Z,105.50
2018-03-31T19:38:40.821Z,82.33
2018-03-31T19:41:10.021Z,63.20
2018-03-31T19:43:38.485Z,55.13
2018-03-31T19:46:07.662Z,52.60
2018-03-31T19:48:36.885Z,51.07
2018-03-31T19:51:05.744Z,52.40
2018-03-31T19:53:35.037Z,52.60
2018-03-31T19:56:04.157Z,46.60
2018-03-31T19:58:32.971Z,49.57
2018-03-31T20:01:02.247Z,47.20
2018-03-31T20:03:31.435Z,50.17
2018-03-31T20:06:00.266Z,40.90
2018-03-31T20:08:28.725Z,46.17
2018-03-31T20:10:57.146Z,41.30
2018-03-31T20:13:26.382Z,45.50
2018-03-31T20:15:54.834Z,51.30
2018-03-31T20:18:24.045Z,57.27
2018-03-31T20:20:53.256Z,64.13
2018-03-31T20:23:22.145Z,55.73
2018-03-31T20:25:51.019Z,55.93
2018-03-31T20:28:19.883Z,55.03
2018-03-31T20:30:48.706Z,51.57
2018-03-31T20:33:17.931Z,52.97
2018-03-31T20:35:47.191Z,52.77
2018-03-31T20:38:16.380Z,41.23
2018-03-31T20:40:44.918Z,50.20
2018-03-31T20:43:13.429Z,50.63
2018-03-31T20:45:41.792Z,41.50
2018-03-31T20:48:10.977Z,46.70
2018-03-31T20:50:39.844Z,48.03
2018-03-31T20:53:09.088Z,43.47
2018-03-31T20:55:37.541Z,45.10
2018-03-31T20:58:06.798Z,41.03
2018-03-31T21:00:36.958Z,44.03
2018-03-31T21:03:05.363Z,43.60
2018-03-31T21:05:33.830Z,45.37
2018-03-31T21:08:02.260Z,48.23
2018-03-31T21:10:31.180Z,46.17
2018-03-31T21:13:01.150Z,51.73
2018-03-31T21:15:30.364Z,44.70
2018-03-31T21:17:58.807Z,46.40
2018-03-31T21:20:28.027Z,45.80
2018-03-31T21:22:57.210Z,52.03
2018-03-31T21:25:26.442Z,57.00
2018-03-31T21:27:54.866Z,50.60
2018-03-31T21:30:23.333Z,49.43
2018-03-31T21:32:51.844Z,42.37
2018-03-31T21:35:20.276Z,42.00
2018-03-31T21:37:48.827Z,46.63
2018-03-31T21:40:18.124Z,48.83
2018-03-31T21:42:47.321Z,44.57
2018-03-31T21:45:16.519Z,47.63
2018-03-31T21:47:44.941Z,50.33
2018-03-31T21:50:13.646Z,52.80
2018-03-31T21:52:42.061Z,47.90
2018-03-31T21:55:10.878Z,46.20
2018-03-31T21:57:39.814Z,50.80
2018-03-31T22:00:09.010Z,47.80
2018-03-31T22:02:38.964Z,58.73
2018-03-31T22:05:07.434Z,56.53
2018-03-31T22:07:36.643Z,55.47
2018-03-31T22:10:05.812Z,63.80
2018-03-31T22:12:34.996Z,58.80
2018-03-31T22:15:09.321Z,59.37
2018-03-31T22:17:38.164Z,61.37
2018-03-31T22:20:06.583Z,57.87
2018-03-31T22:22:35.026Z,61.27
2018-03-31T22:25:04.198Z,53.13
2018-03-31T22:27:33.300Z,58.50
2018-03-31T22:30:02.145Z,49.17
2018-03-31T22:32:31.133Z,43.63
2018-03-31T22:35:01.085Z,45.17
2018-03-31T22:37:30.291Z,39.83
2018-03-31T22:39:59.129Z,39.03
2018-03-31T22:42:27.555Z,40.97
2018-03-31T22:44:55.990Z,37.57
2018-03-31T22:47:24.410Z,42.80
2018-03-31T22:49:52.981Z,43.23
2018-03-31T22:52:22.155Z,39.83
2018-03-31T22:54:51.377Z,43.73
2018-03-31T22:57:19.821Z,44.40
2018-03-31T22:59:48.234Z,44.10
2018-03-31T23:02:17.431Z,44.20
2018-03-31T23:04:46.624Z,44.47
2018-03-31T23:07:15.803Z,52.57
2018-03-31T23:09:44.546Z,42.00
2018-03-31T23:12:12.970Z,47.67
2018-03-31T23:14:42.152Z,51.53
2018-03-31T23:17:10.613Z,54.63
2018-03-31T23:19:39.441Z,55.20
2018-03-31T23:22:07.916Z,47.17
2018-03-31T23:24:36.329Z,51.00
2018-03-31T23:27:04.754Z,56.00
2018-03-31T23:29:33.185Z,52.57
2018-03-31T23:32:03.225Z,58.00
2018-03-31T23:34:31.691Z,51.27
2018-03-31T23:37:00.888Z,58.30
2018-03-31T23:39:30.078Z,54.37
2018-03-31T23:41:58.518Z,48.20
2018-03-31T23:44:26.934Z,49.80
2018-03-31T23:46:55.349Z,48.07
2018-03-31T23:49:24.545Z,47.83
2018-03-31T23:51:52.957Z,47.73
2018-03-31T23:54:21.460Z,46.77
2018-03-31T23:56:50.630Z,45.07
2018-03-31T23:59:19.044Z,51.80
